Time;durP1;ratioP1;P1;durP2;ratioP2;P2;SDS_P1;SDS_P2;PMS_P1;PMS_P2;Temp;Humidity;BMP_temperature;BMP_pressure;BME280_temperature;BME280_humidity;BME280_pressure;Samples;Min_cycle;Max_cycle;Signal;HPM_P1;HPM_P2
2023/02/05 00:00:44;;;;;;;43.43;21.20;;;8.80;99.90;;;;;;5035806;28;20209;-59
2023/02/05 00:03:11;;;;;;;44.53;21.83;;;8.80;99.90;;;;;;5032307;28;20418;-60
2023/02/05 00:05:38;;;;;;;42.23;20.57;;;8.80;99.90;;;;;;5032924;28;20566;-59
2023/02/05 00:08:05;;;;;;;45.30;21.83;;;8.80;99.90;;;;;;5032572;28;20210;-60
2023/02/05 00:10:32;;;;;;;43.03;21.17;;;8.90;99.90;;;;;;5038037;28;20200;-59
2023/02/05 00:12:58;;;;;;;37.40;20.57;;;8.90;99.90;;;;;;5033815;28;20207;-60
2023/02/05 00:15:25;;;;;;;41.90;21.70;;;8.80;99.90;;;;;;5036778;28;20201;-59
2023/02/05 00:17:52;;;;;;;36.17;20.33;;;8.60;99.90;;;;;;5035508;28;20213;-59
2023/02/05 00:20:19;;;;;;;39.43;20.90;;;8.60;99.90;;;;;;5033823;28;20669;-59
2023/02/05 00:22:45;;;;;;;39.83;21.03;;;8.60;99.90;;;;;;5036954;28;20211;-60
2023/02/05 00:25:12;;;;;;;44.57;20.57;;;8.60;99.90;;;;;;5034856;28;21036;-63
2023/02/05 00:27:39;;;;;;;46.30;20.13;;;8.60;99.90;;;;;;5034332;28;20634;-60
2023/02/05 00:30:07;;;;;;;38.93;19.93;;;8.40;99.90;;;;;;5035619;28;20214;-59
2023/02/05 00:32:34;;;;;;;44.93;20.27;;;8.40;99.90;;;;;;5036708;28;20220;-59
2023/02/05 00:35:00;;;;;;;37.40;19.83;;;8.50;99.90;;;;;;5031949;28;20204;-61
2023/02/05 00:37:27;;;;;;;34.67;19.40;;;8.70;99.90;;;;;;5035308;28;20223;-59
2023/02/05 00:39:54;;;;;;;43.63;20.37;;;8.60;99.90;;;;;;5033487;28;20247;-59
2023/02/05 00:42:21;;;;;;;35.63;19.80;;;8.60;99.90;;;;;;5036556;28;20316;-61
2023/02/05 00:44:47;;;;;;;33.30;19.60;;;8.70;99.90;;;;;;5036557;28;20205;-60
2023/02/05 00:47:14;;;;;;;35.57;19.10;;;8.60;99.90;;;;;;5038116;28;20228;-59
2023/02/05 00:49:41;;;;;;;34.03;20.20;;;8.50;99.90;;;;;;5036235;28;20297;-59
2023/02/05 00:52:07;;;;;;;45.60;21.00;;;8.70;99.90;;;;;;5038217;28;20327;-59
2023/02/05 00:54:34;;;;;;;37.23;20.67;;;8.80;99.90;;;;;;5037198;28;20235;-59
2023/02/05 00:57:01;;;;;;;37.87;20.03;;;8.80;99.90;;;;;;5037730;28;20564;-60
2023/02/05 00:59:28;;;;;;;36.20;20.60;;;8.70;99.90;;;;;;5036806;28;20740;-62
2023/02/05 01:01:55;;;;;;;34.63;20.77;;;8.70;99.90;;;;;;5031913;28;20284;-59
2023/02/05 01:04:21;;;;;;;37.13;19.60;;;8.70;99.90;;;;;;5034102;28;20210;-61
2023/02/05 01:06:48;;;;;;;34.70;20.13;;;8.60;99.90;;;;;;5038638;28;20233;-59
2023/02/05 01:09:15;;;;;;;35.43;19.17;;;8.50;99.90;;;;;;5039986;28;20270;-59
2023/02/05 01:11:42;;;;;;;36.40;19.87;;;8.50;99.90;;;;;;5042713;28;20246;-59
2023/02/05 01:14:08;;;;;;;38.03;20.30;;;8.50;99.90;;;;;;5041828;28;20656;-59
2023/02/05 01:16:35;;;;;;;35.77;19.70;;;8.50;99.90;;;;;;5041113;28;20279;-59
2023/02/05 01:19:02;;;;;;;38.40;20.20;;;8.40;99.90;;;;;;5040028;28;20208;-59
2023/02/05 01:21:29;;;;;;;36.57;19.27;;;8.40;99.90;;;;;;5039986;28;20204;-60
2023/02/05 01:23:58;;;;;;;37.00;20.40;;;8.30;99.90;;;;;;5040843;28;20258;-59
2023/02/05 01:26:25;;;;;;;35.70;18.53;;;8.30;99.90;;;;;;5041605;28;20582;-60
2023/02/05 01:28:52;;;;;;;30.03;19.23;;;8.40;99.90;;;;;;5040187;28;20208;-59
2023/02/05 01:31:20;;;;;;;32.77;18.77;;;8.40;99.90;;;;;;5038952;28;20293;-59
2023/02/05 01:33:47;;;;;;;30.67;18.10;;;8.60;99.90;;;;;;5040992;28;20570;-60
2023/02/05 01:36:14;;;;;;;30.60;19.03;;;8.50;99.90;;;;;;5040645;28;20232;-59
2023/02/05 01:38:41;;;;;;;27.80;18.00;;;8.40;99.90;;;;;;5038092;28;20200;-60
2023/02/05 01:41:08;;;;;;;28.80;17.73;;;8.50;99.90;;;;;;5038533;28;20202;-59
2023/02/05 01:43:35;;;;;;;28.47;16.67;;;8.50;99.90;;;;;;5042015;28;20225;-59
2023/02/05 01:46:25;;;;;;;28.53;16.47;;;8.50;99.90;;;;;;5040738;28;20225;-59
2023/02/05 01:48:56;;;;;;;29.97;18.97;;;8.40;99.90;;;;;;5035884;28;20673;-62
2023/02/05 01:51:24;;;;;;;30.63;19.07;;;8.40;99.90;;;;;;5036968;28;20197;-59
2023/02/05 01:53:51;;;;;;;28.73;17.13;;;8.40;99.90;;;;;;5036492;28;20308;-60
2023/02/05 01:56:27;;;;;;;28.90;17.40;;;8.40;99.90;;;;;;5040272;28;20262;-59
2023/02/05 01:58:59;;;;;;;33.07;18.33;;;8.40;99.90;;;;;;5038213;28;20201;-59
2023/02/05 02:01:26;;;;;;;29.83;17.40;;;8.40;99.90;;;;;;5040174;28;20741;-59
2023/02/05 02:03:56;;;;;;;33.37;17.67;;;8.50;99.90;;;;;;5038352;28;20679;-60
2023/02/05 02:06:22;;;;;;;32.27;17.57;;;8.60;99.90;;;;;;5034196;28;20224;-59
2023/02/05 02:08:50;;;;;;;29.93;17.80;;;8.50;99.90;;;;;;5028694;28;20707;-59
2023/02/05 02:11:20;;;;;;;28.37;17.77;;;8.40;99.90;;;;;;5032562;28;20206;-60
2023/02/05 02:13:51;;;;;;;27.50;17.37;;;8.40;99.90;;;;;;5031636;28;20251;-59
2023/02/05 02:16:19;;;;;;;28.43;17.47;;;8.60;99.90;;;;;;5032895;28;20657;-59
2023/02/05 02:18:47;;;;;;;32.87;18.23;;;8.60;99.90;;;;;;5035788;28;20198;-59
2023/02/05 02:21:38;;;;;;;30.67;18.37;;;8.50;99.90;;;;;;5034296;28;20228;-59
2023/02/05 02:24:30;;;;;;;33.10;18.27;;;8.50;99.90;;;;;;5038755;28;20200;-60
2023/02/05 02:27:13;;;;;;;35.67;17.53;;;8.40;99.90;;;;;;5041220;28;20574;-59
2023/02/05 02:29:43;;;;;;;30.17;17.73;;;8.30;99.90;;;;;;5038809;28;20212;-63
2023/02/05 02:32:21;;;;;;;27.90;16.57;;;8.30;99.90;;;;;;5040329;28;20209;-61
2023/02/05 02:34:55;;;;;;;29.27;16.90;;;8.40;99.90;;;;;;5040385;28;20220;-60
2023/02/05 02:37:26;;;;;;;26.40;15.40;;;8.40;99.90;;;;;;5039040;28;20245;-61
2023/02/05 02:39:59;;;;;;;28.20;15.33;;;8.60;99.90;;;;;;5023007;28;20214;-60
2023/02/05 02:42:38;;;;;;;25.13;15.30;;;8.50;99.90;;;;;;5040852;28;20218;-61
2023/02/05 02:45:08;;;;;;;28.53;15.17;;;8.50;99.90;;;;;;5038307;28;20207;-61
2023/02/05 02:47:47;;;;;;;26.17;14.50;;;8.50;99.90;;;;;;5040495;28;20219;-62
2023/02/05 02:50:23;;;;;;;25.77;14.77;;;8.50;99.90;;;;;;5039556;28;20238;-61
2023/02/05 02:52:51;;;;;;;24.67;13.43;;;8.40;99.90;;;;;;5038541;28;20202;-63
2023/02/05 02:55:20;;;;;;;24.23;14.40;;;8.40;99.90;;;;;;5039692;28;20288;-61
2023/02/05 02:57:49;;;;;;;26.93;14.47;;;8.40;99.90;;;;;;5035364;28;20220;-61
2023/02/05 03:00:20;;;;;;;24.53;14.57;;;8.40;99.90;;;;;;5037389;28;20570;-62
2023/02/05 03:02:49;;;;;;;22.57;13.37;;;8.40;99.90;;;;;;5039498;28;20616;-61
2023/02/05 03:05:19;;;;;;;22.27;12.67;;;8.40;99.90;;;;;;5035393;28;20319;-61
2023/02/05 03:08:05;;;;;;;25.00;13.07;;;8.20;99.90;;;;;;5037303;28;20254;-61
2023/02/05 03:11:00;;;;;;;22.20;12.27;;;8.10;99.90;;;;;;5038135;28;20242;-61
2023/02/05 03:13:27;;;;;;;24.23;12.90;;;8.10;99.90;;;;;;5039035;28;20209;-60
2023/02/05 03:15:54;;;;;;;20.53;11.90;;;8.10;99.90;;;;;;5038827;28;20212;-61
2023/02/05 03:18:21;;;;;;;22.53;12.80;;;8.20;99.90;;;;;;5039341;28;20579;-61
2023/02/05 03:20:55;;;;;;;20.33;11.60;;;8.40;99.90;;;;;;5036287;28;20602;-61
2023/02/05 03:23:23;;;;;;;17.13;10.60;;;8.40;99.90;;;;;;5027357;28;20202;-61
2023/02/05 03:25:50;;;;;;;16.27;10.03;;;8.40;99.90;;;;;;5033459;28;20193;-61
2023/02/05 03:28:17;;;;;;;14.37;9.27;;;8.40;99.90;;;;;;5034435;28;20192;-61
2023/02/05 03:30:49;;;;;;;18.30;10.13;;;8.50;99.90;;;;;;5034548;28;20296;-61
2023/02/05 03:33:22;;;;;;;15.40;9.97;;;8.50;99.90;;;;;;5027683;28;20241;-61
2023/02/05 03:35:58;;;;;;;13.90;9.00;;;8.40;99.90;;;;;;5033962;28;20234;-64
2023/02/05 03:38:25;;;;;;;19.77;8.60;;;8.50;99.90;;;;;;5020399;28;20208;-63
2023/02/05 03:41:03;;;;;;;12.10;7.43;;;8.40;99.90;;;;;;5035509;28;20203;-61
2023/02/05 03:43:39;;;;;;;16.30;8.33;;;8.40;99.90;;;;;;5031526;28;20203;-62
2023/02/05 03:46:22;;;;;;;15.70;6.77;;;8.40;99.90;;;;;;5020321;28;20227;-61
2023/02/05 03:49:37;;;;;;;14.30;7.27;;;8.40;99.90;;;;;;5034315;28;20207;-60
2023/02/05 03:52:15;;;;;;;13.57;6.67;;;8.40;99.90;;;;;;5036675;28;20638;-62
2023/02/05 03:55:09;;;;;;;11.70;6.77;;;8.40;99.90;;;;;;5032459;28;20227;-60
2023/02/05 03:58:01;;;;;;;12.17;6.67;;;8.30;99.90;;;;;;5037110;28;20710;-60
2023/02/05 04:00:29;;;;;;;10.30;6.17;;;8.40;99.90;;;;;;5037371;28;20711;-60
2023/02/05 04:02:56;;;;;;;8.63;5.67;;;8.50;99.90;;;;;;5037307;28;20767;-60
2023/02/05 04:05:23;;;;;;;9.47;5.07;;;8.40;99.90;;;;;;5035073;28;20346;-60
2023/02/05 04:07:50;;;;;;;7.87;4.23;;;8.40;99.90;;;;;;5032338;28;20210;-60
2023/02/05 04:10:18;;;;;;;7.97;4.70;;;8.30;99.90;;;;;;5033303;28;20226;-61
2023/02/05 04:12:45;;;;;;;9.27;4.53;;;8.40;99.90;;;;;;5036357;28;20715;-60
2023/02/05 04:15:12;;;;;;;6.73;3.73;;;8.40;99.90;;;;;;5035986;28;20204;-61
2023/02/05 04:17:39;;;;;;;7.80;3.60;;;8.30;99.90;;;;;;5031673;28;20283;-60
2023/02/05 04:20:07;;;;;;;8.33;4.13;;;8.30;99.90;;;;;;5019389;28;20542;-60
2023/02/05 04:22:33;;;;;;;6.80;3.63;;;8.30;99.90;;;;;;5036528;28;20275;-60
2023/02/05 04:25:00;;;;;;;8.43;3.67;;;8.10;99.90;;;;;;5031148;28;20214;-60
2023/02/05 04:27:27;;;;;;;6.03;3.87;;;8.00;99.90;;;;;;5028285;28;20215;-60
2023/02/05 04:29:54;;;;;;;8.73;4.30;;;7.90;99.90;;;;;;5033730;28;20252;-60
2023/02/05 04:32:21;;;;;;;8.47;4.37;;;7.80;99.90;;;;;;5035248;28;20661;-66
2023/02/05 04:34:48;;;;;;;9.27;5.20;;;7.80;99.90;;;;;;5035582;28;20276;-63
2023/02/05 04:37:14;;;;;;;8.07;4.60;;;7.80;99.90;;;;;;5036856;28;20309;-61
2023/02/05 04:39:41;;;;;;;7.00;4.20;;;7.90;99.90;;;;;;5029983;28;20204;-60
2023/02/05 04:42:08;;;;;;;8.53;4.63;;;7.80;99.90;;;;;;5039993;28;20209;-60
2023/02/05 04:44:35;;;;;;;6.87;4.30;;;8.00;99.90;;;;;;5038193;28;20206;-60
2023/02/05 04:47:01;;;;;;;10.00;4.70;;;8.00;99.90;;;;;;5039624;28;20656;-64
2023/02/05 04:49:30;;;;;;;6.97;4.23;;;8.00;99.90;;;;;;5036401;28;20194;-60
2023/02/05 04:51:57;;;;;;;9.87;4.50;;;8.10;99.90;;;;;;5040733;28;20294;-60
2023/02/05 04:54:24;;;;;;;10.03;4.83;;;8.10;99.90;;;;;;5035841;28;20208;-60
2023/02/05 04:56:50;;;;;;;9.60;4.83;;;8.10;99.90;;;;;;5032697;28;20275;-60
2023/02/05 04:59:17;;;;;;;9.47;4.77;;;8.10;99.90;;;;;;5028305;28;20207;-61
2023/02/05 05:01:44;;;;;;;9.00;4.40;;;8.10;99.90;;;;;;5032428;28;20213;-63
2023/02/05 05:04:11;;;;;;;10.67;4.73;;;8.00;99.90;;;;;;5037996;28;20512;-61
2023/02/05 05:06:37;;;;;;;7.50;4.70;;;8.10;99.90;;;;;;5036094;28;20215;-61
2023/02/05 05:09:04;;;;;;;9.23;5.30;;;8.10;99.90;;;;;;5037953;28;20570;-61
2023/02/05 05:11:31;;;;;;;9.03;4.73;;;8.10;99.90;;;;;;5039220;28;20289;-61
2023/02/05 05:13:58;;;;;;;11.13;4.60;;;8.10;99.90;;;;;;5037596;28;20208;-66
2023/02/05 05:16:25;;;;;;;8.17;5.13;;;8.20;99.90;;;;;;5034780;28;20203;-61
2023/02/05 05:18:52;;;;;;;10.43;5.07;;;8.10;99.90;;;;;;5037933;28;20686;-60
2023/02/05 05:21:19;;;;;;;11.53;5.60;;;8.20;99.90;;;;;;5038689;28;20701;-61
2023/02/05 05:23:45;;;;;;;7.73;5.20;;;8.10;99.90;;;;;;5038864;28;20199;-60
2023/02/05 05:26:12;;;;;;;13.40;6.07;;;8.10;99.90;;;;;;5037553;28;20210;-62
2023/02/05 05:28:39;;;;;;;11.70;5.00;;;8.10;99.90;;;;;;5037036;28;20199;-61
2023/02/05 05:31:09;;;;;;;11.43;6.23;;;8.00;99.90;;;;;;5037163;28;20218;-70
2023/02/05 05:33:36;;;;;;;11.63;5.67;;;8.00;99.90;;;;;;5039779;28;21175;-61
2023/02/05 05:36:04;;;;;;;12.73;5.80;;;8.10;99.90;;;;;;5034478;28;20253;-61
2023/02/05 05:38:31;;;;;;;11.93;6.47;;;8.10;99.90;;;;;;5036475;28;20197;-61
2023/02/05 05:43:46;;;;;;;8.90;5.27;;;8.10;99.90;;;;;;5037695;28;20219;-61
2023/02/05 05:46:20;;;;;;;10.93;5.60;;;8.10;99.90;;;;;;5034791;28;20225;-61
2023/02/05 05:48:52;;;;;;;8.70;5.13;;;8.10;99.90;;;;;;5037082;28;20192;-61
2023/02/05 05:51:20;;;;;;;7.17;4.27;;;8.10;99.90;;;;;;5038076;28;20204;-61
2023/02/05 05:53:47;;;;;;;5.70;4.23;;;8.00;99.90;;;;;;5039629;28;20697;-61
2023/02/05 05:56:15;;;;;;;7.47;4.33;;;8.00;99.90;;;;;;5036401;28;20291;-62
2023/02/05 05:58:43;;;;;;;4.10;2.93;;;7.90;99.90;;;;;;5035759;28;20232;-61
2023/02/05 06:01:11;;;;;;;5.47;3.30;;;7.90;99.90;;;;;;5038045;28;21557;-61
2023/02/05 06:03:38;;;;;;;4.83;3.20;;;7.90;99.90;;;;;;5039428;28;20283;-60
2023/02/05 06:06:06;;;;;;;7.30;2.80;;;7.90;99.90;;;;;;5031709;28;20203;-61
2023/02/05 06:08:33;;;;;;;4.23;2.77;;;7.90;99.90;;;;;;5035675;28;20318;-61
2023/02/05 06:11:00;;;;;;;4.63;2.43;;;7.90;99.90;;;;;;5037321;28;20196;-61
2023/02/05 06:13:27;;;;;;;2.63;1.97;;;8.00;99.90;;;;;;5035730;28;20193;-61
2023/02/05 06:15:54;;;;;;;3.60;2.10;;;8.00;99.90;;;;;;5035498;28;20211;-60
2023/02/05 06:18:21;;;;;;;4.83;2.07;;;7.80;99.90;;;;;;5033941;28;20209;-60
2023/02/05 06:20:49;;;;;;;3.73;1.50;;;7.80;99.90;;;;;;5040002;28;20214;-60
2023/02/05 06:23:16;;;;;;;4.87;1.60;;;7.70;99.90;;;;;;5034751;28;20575;-61
2023/02/05 06:25:43;;;;;;;3.33;1.27;;;7.60;99.90;;;;;;5040884;28;20206;-61
2023/02/05 06:28:10;;;;;;;6.10;1.47;;;7.50;99.90;;;;;;5037271;28;20221;-61
2023/02/05 06:30:37;;;;;;;7.37;0.90;;;7.50;99.90;;;;;;5033820;28;20237;-61
2023/02/05 06:33:04;;;;;;;4.83;1.30;;;7.40;99.90;;;;;;5039741;28;20283;-61
2023/02/05 06:35:31;;;;;;;10.43;3.70;;;7.30;99.90;;;;;;5035721;28;20835;-61
2023/02/05 06:37:58;;;;;;;6.33;0.90;;;7.20;99.90;;;;;;5033918;28;20204;-61
2023/02/05 06:40:26;;;;;;;7.10;1.03;;;7.10;99.90;;;;;;5028725;28;20207;-61
2023/02/05 06:42:54;;;;;;;4.60;1.30;;;7.10;99.90;;;;;;5039935;28;20799;-63
2023/02/05 06:45:20;;;;;;;6.20;1.07;;;7.10;99.90;;;;;;5036071;28;20754;-60
2023/02/05 06:47:48;;;;;;;5.30;1.07;;;7.10;99.90;;;;;;5037096;28;20311;-61
2023/02/05 06:50:15;;;;;;;5.63;1.10;;;7.10;99.90;;;;;;5036205;28;20204;-61
2023/02/05 06:52:41;;;;;;;3.70;0.90;;;7.10;99.90;;;;;;5037035;28;20206;-60
2023/02/05 06:55:08;;;;;;;4.10;0.50;;;7.00;99.90;;;;;;5037171;28;20673;-60
2023/02/05 06:57:35;;;;;;;3.30;0.60;;;7.00;99.90;;;;;;5038666;28;20572;-61
2023/02/05 07:00:07;;;;;;;3.37;0.70;;;7.00;99.90;;;;;;5035944;28;20234;-62
2023/02/05 07:02:33;;;;;;;3.57;0.77;;;7.00;99.90;;;;;;5035059;28;20557;-60
2023/02/05 07:05:00;;;;;;;3.57;0.73;;;7.00;99.90;;;;;;5035432;28;20911;-61
2023/02/05 07:07:27;;;;;;;2.77;0.90;;;7.10;99.90;;;;;;5034238;28;20215;-60
2023/02/05 07:09:54;;;;;;;4.03;0.73;;;7.10;99.90;;;;;;5037896;28;20248;-61
2023/02/05 07:12:21;;;;;;;9.03;0.70;;;7.10;99.90;;;;;;5037787;28;20198;-60
2023/02/05 07:14:47;;;;;;;4.13;1.10;;;7.00;99.90;;;;;;5038577;28;20198;-60
2023/02/05 07:17:14;;;;;;;3.73;0.80;;;7.00;99.90;;;;;;5034324;28;20209;-61
2023/02/05 07:19:41;;;;;;;5.03;1.00;;;7.00;99.90;;;;;;5036687;28;20647;-61
2023/02/05 07:22:09;;;;;;;7.20;1.00;;;7.10;99.90;;;;;;5034575;28;20601;-61
2023/02/05 07:24:36;;;;;;;3.43;0.70;;;7.00;99.90;;;;;;5036985;28;20219;-61
2023/02/05 07:27:03;;;;;;;4.27;0.80;;;7.10;99.90;;;;;;5037547;28;20288;-60
2023/02/05 07:29:30;;;;;;;3.07;0.80;;;7.10;99.90;;;;;;5036081;28;20196;-61
2023/02/05 07:31:56;;;;;;;6.63;1.17;;;7.10;99.90;;;;;;5033472;28;20197;-61
2023/02/05 07:34:23;;;;;;;6.10;1.50;;;7.10;99.90;;;;;;5035009;28;20275;-61
2023/02/05 07:36:51;;;;;;;5.90;0.90;;;7.10;99.90;;;;;;5035775;28;20720;-65
2023/02/05 07:39:18;;;;;;;8.17;0.90;;;7.10;99.90;;;;;;5034534;28;20731;-61
2023/02/05 07:41:46;;;;;;;3.90;0.70;;;7.00;99.90;;;;;;5038752;28;20236;-61
2023/02/05 07:44:12;;;;;;;7.90;1.60;;;7.00;99.90;;;;;;5038550;28;20258;-61
2023/02/05 07:46:39;;;;;;;5.27;1.00;;;7.00;99.90;;;;;;5035485;28;20202;-61
2023/02/05 07:49:06;;;;;;;6.83;0.93;;;7.00;99.90;;;;;;5033279;28;20218;-61
2023/02/05 07:51:33;;;;;;;7.03;1.17;;;6.90;99.90;;;;;;5039098;28;20216;-60
2023/02/05 07:54:07;;;;;;;8.70;1.70;;;7.00;99.90;;;;;;5031846;28;20215;-60
2023/02/05 07:56:34;;;;;;;5.43;0.90;;;7.00;99.90;;;;;;5037142;28;20785;-60
2023/02/05 07:59:01;;;;;;;5.93;1.10;;;7.00;99.90;;;;;;5036293;28;20232;-60
2023/02/05 08:01:28;;;;;;;7.17;1.10;;;7.00;99.90;;;;;;5032738;28;20201;-61
2023/02/05 08:03:55;;;;;;;8.40;1.20;;;7.00;99.90;;;;;;5026586;28;20300;-60
2023/02/05 08:06:22;;;;;;;4.50;1.03;;;7.10;99.90;;;;;;5034484;28;20660;-60
2023/02/05 08:08:48;;;;;;;5.73;1.37;;;7.10;99.90;;;;;;5030335;28;20240;-60
2023/02/05 08:11:17;;;;;;;5.93;1.00;;;7.10;99.90;;;;;;5034538;28;20206;-60
2023/02/05 08:13:44;;;;;;;10.37;1.27;;;7.20;99.90;;;;;;5034403;28;20297;-60
2023/02/05 08:16:14;;;;;;;6.17;1.17;;;7.20;99.90;;;;;;5032867;28;20470;-60
2023/02/05 08:18:41;;;;;;;6.10;1.00;;;7.20;99.90;;;;;;5031340;28;20204;-61
2023/02/05 08:21:08;;;;;;;9.63;1.10;;;7.20;99.90;;;;;;5032907;28;20630;-61
2023/02/05 08:23:35;;;;;;;8.47;1.40;;;7.20;99.90;;;;;;5030502;28;20208;-60
2023/02/05 08:26:02;;;;;;;7.70;1.13;;;7.10;99.90;;;;;;5033764;28;20212;-61
2023/02/05 08:28:29;;;;;;;8.17;1.87;;;7.10;99.90;;;;;;5033445;28;20712;-60
2023/02/05 08:30:56;;;;;;;8.83;1.77;;;7.10;99.90;;;;;;5033577;28;20235;-60
2023/02/05 08:33:23;;;;;;;13.07;1.73;;;7.10;99.90;;;;;;5031122;28;20201;-60
2023/02/05 08:35:50;;;;;;;8.80;1.53;;;7.20;99.90;;;;;;5035320;28;20668;-60
2023/02/05 08:38:17;;;;;;;6.57;1.57;;;7.20;99.90;;;;;;5032896;28;20549;-60
2023/02/05 08:40:44;;;;;;;9.90;2.83;;;7.20;99.90;;;;;;5029024;28;20745;-60
2023/02/05 08:43:11;;;;;;;4.73;1.30;;;7.30;99.90;;;;;;5038498;28;20263;-60
2023/02/05 08:45:37;;;;;;;5.70;1.30;;;7.30;99.90;;;;;;5034385;28;20201;-60
2023/02/05 08:48:04;;;;;;;9.63;2.13;;;7.30;99.90;;;;;;5035851;28;20257;-60
2023/02/05 08:50:31;;;;;;;9.07;1.63;;;7.30;99.90;;;;;;5032725;28;20246;-60
2023/02/05 08:52:58;;;;;;;9.93;1.27;;;7.30;99.90;;;;;;5037003;28;20294;-60
2023/02/05 08:55:25;;;;;;;10.37;1.77;;;7.30;99.90;;;;;;5036480;28;20272;-60
2023/02/05 08:57:52;;;;;;;11.37;1.80;;;7.30;99.90;;;;;;5034632;28;20251;-60
2023/02/05 09:00:20;;;;;;;10.43;1.57;;;7.40;99.90;;;;;;5034734;28;20235;-61
2023/02/05 09:02:46;;;;;;;7.90;1.30;;;7.50;99.90;;;;;;5034214;28;20211;-61
2023/02/05 09:05:13;;;;;;;11.93;2.20;;;7.50;99.90;;;;;;5033768;28;20262;-61
2023/02/05 09:07:40;;;;;;;5.77;1.80;;;7.50;99.90;;;;;;5036536;28;20223;-61
2023/02/05 09:10:09;;;;;;;12.80;1.60;;;7.50;99.90;;;;;;5020131;28;20229;-63
2023/02/05 09:12:36;;;;;;;8.00;1.90;;;7.50;99.90;;;;;;5036895;28;20627;-61
2023/02/05 09:15:04;;;;;;;9.57;1.97;;;7.60;99.90;;;;;;5033708;28;20205;-61
2023/02/05 09:17:31;;;;;;;8.10;2.23;;;7.50;99.90;;;;;;5033529;28;20281;-61
2023/02/05 09:19:58;;;;;;;11.73;2.43;;;7.50;99.90;;;;;;5031254;28;20507;-61
2023/02/05 09:22:25;;;;;;;9.90;1.57;;;7.50;99.90;;;;;;5034521;28;20207;-61
2023/02/05 09:24:51;;;;;;;6.60;1.73;;;7.60;99.90;;;;;;5033321;28;20206;-61
2023/02/05 09:27:18;;;;;;;12.97;2.47;;;7.70;99.90;;;;;;5033194;28;20658;-61
2023/02/05 09:29:45;;;;;;;9.10;2.00;;;7.60;99.90;;;;;;5024072;28;20204;-61
2023/02/05 09:32:12;;;;;;;19.25;2.83;;;7.70;99.90;;;;;;4663174;28;9999866;-62
2023/02/05 09:34:39;;;;;;;16.97;2.37;;;7.60;99.90;;;;;;5019574;28;20209;-61
2023/02/05 09:37:05;;;;;;;10.77;2.17;;;7.60;99.90;;;;;;5034074;28;20230;-61
2023/02/05 09:39:32;;;;;;;14.03;2.57;;;7.60;99.90;;;;;;5016241;28;20252;-61
2023/02/05 09:42:47;;;;;;;11.97;1.83;;;7.60;99.90;;;;;;5036568;28;20686;-61
2023/02/05 09:45:42;;;;;;;15.20;2.80;;;7.60;99.90;;;;;;4994033;28;20200;-61
2023/02/05 09:48:50;;;;;;;10.77;2.47;;;7.70;99.90;;;;;;5028592;28;20214;-61
2023/02/05 09:51:21;;;;;;;14.07;2.63;;;7.70;99.90;;;;;;5032093;28;20558;-62
2023/02/05 09:53:53;;;;;;;10.77;2.30;;;7.70;99.90;;;;;;5032725;28;20312;-61
2023/02/05 09:56:21;;;;;;;6.17;2.00;;;7.80;99.90;;;;;;5034688;28;20641;-61
2023/02/05 09:58:50;;;;;;;14.40;2.33;;;7.70;99.90;;;;;;5035028;28;20629;-61
2023/02/05 10:01:43;;;;;;;11.90;2.40;;;7.80;99.90;;;;;;5030131;28;20692;-61
2023/02/05 10:04:10;;;;;;;15.97;2.50;;;7.70;99.90;;;;;;5036355;28;20208;-61
2023/02/05 10:06:40;;;;;;;12.43;2.93;;;7.80;99.90;;;;;;5020366;28;20216;-62
2023/02/05 10:09:35;;;;;;;14.80;2.63;;;7.90;99.90;;;;;;5029223;28;20238;-62
2023/02/05 10:12:16;;;;;;;12.67;2.90;;;7.90;99.90;;;;;;5038208;28;20288;-61
2023/02/05 10:15:23;;;;;;;12.60;2.63;;;8.00;99.90;;;;;;5034691;28;20198;-62
2023/02/05 10:18:03;;;;;;;14.87;2.70;;;8.00;99.90;;;;;;5032398;28;20201;-62
2023/02/05 10:20:48;;;;;;;12.50;2.20;;;8.00;99.90;;;;;;5034604;28;20303;-64
2023/02/05 10:23:24;;;;;;;14.37;2.47;;;7.90;99.90;;;;;;5027022;28;20591;-64
2023/02/05 10:26:07;;;;;;;18.47;3.20;;;8.00;99.90;;;;;;5028093;28;20643;-63
2023/02/05 10:28:58;;;;;;;10.23;2.00;;;8.00;99.90;;;;;;5023088;28;20816;-62
2023/02/05 10:31:58;;;;;;;17.20;2.87;;;8.10;99.90;;;;;;5032484;28;20251;-63
2023/02/05 10:35:01;;;;;;;17.47;3.50;;;8.10;99.90;;;;;;5034119;28;20193;-65
2023/02/05 10:37:46;;;;;;;17.73;3.23;;;8.10;99.90;;;;;;5019811;28;20534;-62
2023/02/05 10:40:15;;;;;;;16.40;2.93;;;8.10;99.90;;;;;;5017883;28;20203;-62
2023/02/05 10:43:07;;;;;;;13.03;2.17;;;8.10;99.90;;;;;;5028133;28;20746;-62
2023/02/05 10:45:34;;;;;;;12.53;2.10;;;8.30;99.90;;;;;;5030498;28;20193;-63
2023/02/05 10:48:32;;;;;;;18.43;3.53;;;8.10;99.90;;;;;;5023920;28;20227;-63
2023/02/05 10:51:06;;;;;;;13.03;2.40;;;8.10;99.90;;;;;;5031372;28;20196;-63
2023/02/05 10:53:35;;;;;;;12.57;2.70;;;8.00;99.90;;;;;;5029647;28;20702;-62
2023/02/05 10:56:03;;;;;;;19.33;3.60;;;7.90;99.90;;;;;;5027778;28;20242;-61
2023/02/05 10:58:37;;;;;;;12.53;2.50;;;7.90;99.90;;;;;;5029119;28;20247;-60
2023/02/05 11:01:10;;;;;;;16.80;2.80;;;7.90;99.90;;;;;;5019360;28;20207;-61
2023/02/05 11:03:38;;;;;;;14.23;2.93;;;7.90;99.90;;;;;;5029071;28;20232;-61
2023/02/05 11:06:10;;;;;;;16.80;2.47;;;8.30;99.90;;;;;;5026041;28;20262;-61
2023/02/05 11:08:46;;;;;;;14.37;2.43;;;8.70;99.90;;;;;;5023695;28;20220;-60
2023/02/05 11:11:21;;;;;;;11.50;2.80;;;8.90;99.90;;;;;;5026469;28;20672;-61
2023/02/05 11:14:06;;;;;;;16.90;3.33;;;9.10;99.90;;;;;;5027242;28;20614;-61
2023/02/05 11:16:40;;;;;;;13.80;2.37;;;9.00;99.90;;;;;;5028022;28;20288;-61
2023/02/05 11:19:26;;;;;;;10.50;2.90;;;8.80;99.90;;;;;;5020934;28;20342;-61
2023/02/05 11:21:56;;;;;;;13.63;2.13;;;8.60;99.90;;;;;;5016233;28;20214;-60
2023/02/05 11:24:25;;;;;;;16.53;2.87;;;8.60;99.90;;;;;;5024905;28;20285;-61
2023/02/05 11:27:14;;;;;;;15.10;3.53;;;8.60;99.90;;;;;;5027918;28;20213;-60
2023/02/05 11:29:42;;;;;;;14.20;2.87;;;8.60;99.90;;;;;;5022955;28;20303;-61
2023/02/05 11:32:31;;;;;;;14.07;2.63;;;8.60;99.90;;;;;;5023431;28;20633;-61
2023/02/05 11:35:25;;;;;;;15.00;2.57;;;8.70;99.90;;;;;;5020216;28;20673;-61
2023/02/05 11:37:59;;;;;;;11.53;2.27;;;8.70;99.90;;;;;;5016291;28;20283;-61
2023/02/05 11:40:32;;;;;;;15.67;3.03;;;8.70;99.90;;;;;;5020129;28;20212;-61
2023/02/05 11:43:04;;;;;;;15.53;2.47;;;8.70;99.90;;;;;;5025477;28;20617;-61
2023/02/05 11:45:34;;;;;;;13.53;2.40;;;8.80;99.90;;;;;;5020941;28;20305;-65
2023/02/05 11:48:05;;;;;;;11.67;2.30;;;8.90;99.90;;;;;;5016419;28;21113;-61
2023/02/05 11:50:32;;;;;;;8.70;1.87;;;9.00;99.90;;;;;;5018902;28;20309;-61
2023/02/05 11:53:13;;;;;;;8.70;2.23;;;8.90;99.90;;;;;;5013095;28;20244;-61
2023/02/05 11:55:40;;;;;;;14.13;2.50;;;8.80;99.90;;;;;;5022802;28;20204;-62
2023/02/05 11:58:27;;;;;;;11.73;2.27;;;8.70;99.90;;;;;;5017225;28;20221;-63
2023/02/05 12:01:20;;;;;;;9.03;2.57;;;9.10;99.90;;;;;;5023337;28;20263;-57
2023/02/05 12:04:00;;;;;;;9.43;2.80;;;9.20;99.90;;;;;;5020265;28;20204;-62
2023/02/05 12:06:36;;;;;;;10.20;2.10;;;9.30;99.90;;;;;;5017483;28;20262;-63
2023/02/05 12:09:03;;;;;;;12.63;2.67;;;9.60;99.90;;;;;;5021129;28;20282;-62
2023/02/05 12:11:59;;;;;;;16.10;2.43;;;9.40;99.90;;;;;;5020943;28;20269;-65
2023/02/05 12:14:55;;;;;;;9.70;2.70;;;9.40;99.90;;;;;;5018913;28;20360;-61
2023/02/05 12:17:43;;;;;;;16.03;2.80;;;9.70;99.90;;;;;;5022898;28;20205;-62
2023/02/05 12:20:27;;;;;;;12.37;1.73;;;9.60;99.90;;;;;;5019305;28;20271;-63
2023/02/05 12:23:03;;;;;;;14.40;2.87;;;9.60;99.90;;;;;;5022659;28;20521;-62
2023/02/05 12:25:40;;;;;;;10.00;2.30;;;9.60;99.90;;;;;;5024331;28;20201;-61
2023/02/05 12:28:45;;;;;;;11.10;2.93;;;9.60;99.90;;;;;;5019230;28;20660;-63
2023/02/05 12:31:35;;;;;;;13.63;3.00;;;9.60;99.90;;;;;;5019337;28;20297;-64
2023/02/05 12:34:05;;;;;;;14.40;2.13;;;9.60;99.90;;;;;;4984833;28;20201;-63
2023/02/05 12:36:32;;;;;;;14.60;3.00;;;9.80;99.90;;;;;;5023260;28;20225;-63
2023/02/05 12:39:17;;;;;;;14.33;2.30;;;9.80;99.90;;;;;;5018875;28;20206;-62
2023/02/05 12:42:05;;;;;;;12.10;2.40;;;9.80;99.90;;;;;;5022592;28;20197;-60
2023/02/05 12:44:56;;;;;;;10.90;1.80;;;9.50;99.90;;;;;;5024627;28;20726;-62
2023/02/05 12:47:51;;;;;;;19.23;3.40;;;9.60;99.90;;;;;;5021892;28;20613;-62
2023/02/05 12:50:52;;;;;;;15.10;2.37;;;9.80;99.90;;;;;;5027306;28;20713;-62
2023/02/05 12:53:57;;;;;;;8.90;3.53;;;10.40;99.90;;;;;;5026104;28;20630;-62
2023/02/05 12:56:37;;;;;;;9.13;2.00;;;11.00;99.90;;;;;;5021842;28;20198;-62
2023/02/05 12:59:22;;;;;;;8.07;2.43;;;10.90;99.90;;;;;;5020713;28;20198;-64
2023/02/05 13:01:58;;;;;;;10.57;2.83;;;10.60;99.90;;;;;;5022545;28;20736;-63
2023/02/05 13:04:38;;;;;;;8.93;2.60;;;10.80;99.90;;;;;;5017032;28;20249;-63
2023/02/05 13:07:10;;;;;;;12.27;2.40;;;10.30;99.90;;;;;;5015027;28;20231;-63
2023/02/05 13:09:46;;;;;;;9.93;2.07;;;10.60;99.90;;;;;;5030095;28;20242;-63
2023/02/05 13:12:17;;;;;;;9.67;2.10;;;10.60;99.90;;;;;;5029879;28;20207;-62
2023/02/05 13:15:01;;;;;;;12.47;2.30;;;10.10;99.90;;;;;;5014032;28;20538;-62